Time;durP1;ratioP1;P1;durP2;ratioP2;P2;SDS_P1;SDS_P2;PMS_P1;PMS_P2;Temp;Humidity;BMP_temperature;BMP_pressure;BME280_temperature;BME280_humidity;BME280_pressure;Samples;Min_cycle;Max_cycle;Signal;HPM_P1;HPM_P2
2021/06/01 00:01:58;;;;;;;1.50;1.40;;;9.70;99.90;;;;;;4935555;28;20784;-74
2021/06/01 00:04:24;;;;;;;1.70;1.60;;;9.70;99.90;;;;;;4926993;28;20414;-72
2021/06/01 00:06:50;;;;;;;2.22;1.60;;;9.60;99.90;;;;;;4914458;28;20458;-73
2021/06/01 00:09:18;;;;;;;1.80;1.67;;;9.60;99.90;;;;;;4951950;28;20910;-72
2021/06/01 00:11:43;;;;;;;1.38;1.27;;;9.60;99.90;;;;;;4916914;28;20413;-73
2021/06/01 00:14:09;;;;;;;1.60;1.50;;;9.50;99.90;;;;;;4949559;28;20771;-74
2021/06/01 00:16:37;;;;;;;2.45;1.50;;;9.50;99.90;;;;;;4942699;28;20958;-72
2021/06/01 00:19:07;;;;;;;2.88;1.55;;;9.50;99.90;;;;;;4960243;28;20453;-72
2021/06/01 00:21:34;;;;;;;1.30;1.20;;;9.50;99.90;;;;;;4936291;28;20952;-73
2021/06/01 00:24:00;;;;;;;1.75;1.63;;;9.50;99.90;;;;;;4930457;28;20895;-72
2021/06/01 00:26:26;;;;;;;1.95;1.80;;;9.50;99.90;;;;;;4927936;28;20488;-73
2021/06/01 00:28:52;;;;;;;1.30;1.20;;;9.40;99.90;;;;;;4946708;28;20771;-73
2021/06/01 00:31:18;;;;;;;1.58;1.48;;;9.40;99.90;;;;;;4957209;28;20421;-73
2021/06/01 00:33:44;;;;;;;1.90;1.70;;;9.40;99.90;;;;;;4925599;28;20398;-74
2021/06/01 00:36:09;;;;;;;1.70;1.45;;;9.40;99.90;;;;;;4913791;28;21030;-73
2021/06/01 00:38:35;;;;;;;1.67;1.57;;;9.30;99.90;;;;;;4941361;28;20441;-74
2021/06/01 00:41:01;;;;;;;1.90;1.70;;;9.20;99.90;;;;;;4930931;28;20412;-72
2021/06/01 00:43:27;;;;;;;1.52;1.42;;;9.20;99.90;;;;;;4920215;28;20410;-74
2021/06/01 00:45:52;;;;;;;1.55;1.45;;;9.20;99.90;;;;;;4934051;28;20402;-73
2021/06/01 00:48:18;;;;;;;1.80;1.70;;;9.10;99.90;;;;;;4940409;28;20404;-75
2021/06/01 00:50:44;;;;;;;1.60;1.50;;;9.10;99.90;;;;;;4948867;28;20929;-73
2021/06/01 00:53:10;;;;;;;1.67;1.57;;;9.10;99.90;;;;;;4918827;28;20445;-74
2021/06/01 00:55:36;;;;;;;1.67;1.57;;;9.00;99.90;;;;;;4898469;28;20413;-73
2021/06/01 00:58:02;;;;;;;2.30;1.50;;;9.00;99.90;;;;;;4920906;28;20419;-73
2021/06/01 01:03:12;;;;;;;1.70;1.60;;;8.90;99.90;;;;;;4947634;28;20488;-74
2021/06/01 01:05:39;;;;;;;1.60;1.50;;;8.90;99.90;;;;;;4942642;28;20455;-77
2021/06/01 01:11:06;;;;;;;1.77;1.55;;;8.90;99.90;;;;;;4947894;28;20401;-75
2021/06/01 01:13:59;;;;;;;1.60;1.50;;;8.80;99.90;;;;;;4932241;28;20424;-73
2021/06/01 01:16:26;;;;;;;2.13;1.58;;;8.80;99.90;;;;;;4935827;28;20405;-73
2021/06/01 01:19:04;;;;;;;1.52;1.42;;;8.80;99.90;;;;;;4956391;28;20407;-73
2021/06/01 01:21:38;;;;;;;1.93;1.67;;;8.80;99.90;;;;;;4946862;28;20482;-73
2021/06/01 01:24:51;;;;;;;1.70;1.60;;;8.80;99.90;;;;;;4932771;28;20460;-76
2021/06/01 01:27:22;;;;;;;1.50;1.40;;;8.70;99.90;;;;;;4963374;28;20812;-74
2021/06/01 01:29:49;;;;;;;1.60;1.50;;;8.60;99.90;;;;;;4939609;28;20405;-72
2021/06/01 01:32:38;;;;;;;4.43;1.60;;;8.50;99.90;;;;;;4936518;28;20498;-73
2021/06/01 01:35:05;;;;;;;1.42;1.33;;;8.60;99.90;;;;;;4916013;28;20466;-73
2021/06/01 01:37:32;;;;;;;2.00;1.70;;;8.50;99.90;;;;;;4914835;29;20433;-73
2021/06/01 01:39:59;;;;;;;1.65;1.55;;;8.40;99.90;;;;;;4927498;28;20401;-73
2021/06/01 01:42:36;;;;;;;2.13;1.75;;;8.40;99.90;;;;;;4928564;28;20415;-73
2021/06/01 01:45:04;;;;;;;1.73;1.63;;;8.50;99.90;;;;;;4925502;28;20407;-72
2021/06/01 01:49:59;;;;;;;1.80;1.70;;;8.30;99.90;;;;;;4938403;28;20399;-71
2021/06/01 01:52:24;;;;;;;2.40;1.80;;;8.30;99.90;;;;;;4916906;28;20431;-73
2021/06/01 01:54:50;;;;;;;1.70;1.60;;;8.30;99.90;;;;;;4881109;29;20481;-72
2021/06/01 01:57:16;;;;;;;3.60;1.80;;;8.30;99.90;;;;;;4922257;28;20411;-73
2021/06/01 01:59:41;;;;;;;1.70;1.60;;;8.20;99.90;;;;;;4953738;28;20416;-73
2021/06/01 02:02:08;;;;;;;1.80;1.70;;;8.10;99.90;;;;;;4950067;28;20414;-75
2021/06/01 02:04:34;;;;;;;1.80;1.70;;;8.10;99.90;;;;;;4962089;28;20413;-74
2021/06/01 02:07:00;;;;;;;1.90;1.70;;;8.20;99.90;;;;;;4958339;28;20462;-73
2021/06/01 02:09:26;;;;;;;1.90;1.70;;;8.20;99.90;;;;;;4948700;28;20420;-74
2021/06/01 02:11:51;;;;;;;1.97;1.77;;;8.10;99.90;;;;;;4911450;28;20462;-75
2021/06/01 02:14:18;;;;;;;1.88;1.77;;;8.10;99.90;;;;;;4921975;28;20494;-72
2021/06/01 02:16:44;;;;;;;1.80;1.70;;;8.00;99.90;;;;;;4924491;28;20395;-73
2021/06/01 02:19:11;;;;;;;1.90;1.80;;;8.00;99.90;;;;;;4924036;28;20405;-74
2021/06/01 02:24:26;;;;;;;1.98;1.70;;;8.00;99.90;;;;;;4939356;28;20450;-74
2021/06/01 02:27:12;;;;;;;1.88;1.77;;;8.00;99.90;;;;;;4925956;28;20459;-71
2021/06/01 02:30:04;;;;;;;1.83;1.73;;;7.90;99.90;;;;;;4956349;28;20978;-73
2021/06/01 02:32:42;;;;;;;2.17;1.98;;;7.80;99.90;;;;;;4940958;28;20418;-73
2021/06/01 02:35:09;;;;;;;2.38;1.90;;;7.90;99.90;;;;;;4929632;28;20442;-73
2021/06/01 02:37:39;;;;;;;1.92;1.80;;;7.80;99.90;;;;;;4928944;28;20412;-75
2021/06/01 02:40:06;;;;;;;1.97;1.77;;;7.80;99.90;;;;;;4938002;28;20404;-73
2021/06/01 02:42:31;;;;;;;2.40;2.05;;;7.80;99.90;;;;;;4917079;28;20471;-80
2021/06/01 02:44:57;;;;;;;2.22;2.13;;;7.80;99.90;;;;;;4936839;28;20408;-78
2021/06/01 02:47:23;;;;;;;2.20;2.00;;;7.70;99.90;;;;;;4961195;28;20414;-74
2021/06/01 02:49:49;;;;;;;1.85;1.75;;;7.70;99.90;;;;;;4931746;28;20441;-73
2021/06/01 02:52:14;;;;;;;1.80;1.70;;;7.70;99.90;;;;;;4936522;28;20932;-73
2021/06/01 02:54:40;;;;;;;1.87;1.70;;;7.60;99.90;;;;;;4947950;28;20804;-73
2021/06/01 02:57:06;;;;;;;1.90;1.70;;;7.60;99.90;;;;;;4928126;28;20405;-75
2021/06/01 02:59:32;;;;;;;1.88;1.67;;;7.60;99.90;;;;;;4938913;28;20464;-75
2021/06/01 03:01:57;;;;;;;2.08;1.80;;;7.60;99.90;;;;;;4939253;28;20811;-74
2021/06/01 03:04:23;;;;;;;1.90;1.80;;;7.60;99.90;;;;;;4958642;28;20481;-73
2021/06/01 03:06:49;;;;;;;2.00;1.90;;;7.70;99.90;;;;;;4932894;28;20404;-77
2021/06/01 03:09:14;;;;;;;1.83;1.73;;;7.60;99.90;;;;;;4936314;28;21245;-74
2021/06/01 03:11:42;;;;;;;2.03;1.83;;;7.70;99.90;;;;;;4957531;28;20414;-79
2021/06/01 03:14:08;;;;;;;2.05;1.95;;;7.60;99.90;;;;;;4931451;28;20779;-77
2021/06/01 03:16:33;;;;;;;1.98;1.83;;;7.60;99.90;;;;;;4930595;28;20411;-74
2021/06/01 03:18:59;;;;;;;2.10;2.00;;;7.60;99.90;;;;;;4958981;28;20822;-74
2021/06/01 03:21:25;;;;;;;2.30;2.10;;;7.60;99.90;;;;;;4950576;28;20472;-77
2021/06/01 03:23:50;;;;;;;1.80;1.70;;;7.50;99.90;;;;;;4931698;28;20898;-78
2021/06/01 03:26:16;;;;;;;2.42;2.22;;;7.60;99.90;;;;;;4946689;28;20903;-78
2021/06/01 03:28:42;;;;;;;2.90;1.90;;;7.50;99.90;;;;;;4937522;28;23218;-74
2021/06/01 03:31:08;;;;;;;2.90;2.00;;;7.50;99.90;;;;;;4947202;28;20398;-76
2021/06/01 03:33:33;;;;;;;2.25;2.08;;;7.60;99.90;;;;;;4940526;28;20419;-74
2021/06/01 03:35:59;;;;;;;2.70;1.83;;;7.40;99.90;;;;;;4922825;28;21335;-76
2021/06/01 03:38:25;;;;;;;1.90;1.80;;;7.40;99.90;;;;;;4923408;28;20408;-77
2021/06/01 03:40:51;;;;;;;2.15;2.00;;;7.50;99.90;;;;;;4909641;28;20773;-72
2021/06/01 03:43:16;;;;;;;2.03;1.87;;;7.60;99.90;;;;;;4952935;28;20406;-75
2021/06/01 03:45:42;;;;;;;2.35;2.05;;;7.60;99.90;;;;;;4923844;28;20473;-78
2021/06/01 03:48:08;;;;;;;2.00;1.90;;;7.70;99.90;;;;;;4942250;28;20971;-76
2021/06/01 03:50:34;;;;;;;2.53;2.10;;;7.70;99.90;;;;;;4947881;28;20467;-75
2021/06/01 03:53:01;;;;;;;2.92;2.03;;;7.80;99.90;;;;;;4937289;28;20441;-75
2021/06/01 03:55:26;;;;;;;2.42;2.22;;;7.80;99.90;;;;;;4945470;28;20473;-77
2021/06/01 03:57:52;;;;;;;2.17;1.97;;;7.90;99.90;;;;;;4944065;28;20849;-75
2021/06/01 04:00:20;;;;;;;2.97;2.30;;;8.00;99.90;;;;;;4917009;28;20512;-76
2021/06/01 04:02:46;;;;;;;2.40;2.15;;;8.10;99.90;;;;;;4926867;28;20882;-76
2021/06/01 04:05:12;;;;;;;2.90;2.70;;;8.20;99.90;;;;;;4943258;28;20479;-75
2021/06/01 04:07:38;;;;;;;2.63;2.42;;;8.40;99.90;;;;;;4958390;28;20458;-76
2021/06/01 04:10:04;;;;;;;2.60;2.40;;;8.50;99.90;;;;;;4942953;28;20403;-77
2021/06/01 04:12:30;;;;;;;2.65;2.28;;;8.60;99.90;;;;;;4928300;28;20840;-74
2021/06/01 04:14:56;;;;;;;2.40;2.20;;;8.70;99.90;;;;;;4922284;28;20500;-75
2021/06/01 04:17:21;;;;;;;1.87;1.77;;;8.80;99.90;;;;;;4960569;28;20433;-75
2021/06/01 04:19:47;;;;;;;2.40;2.20;;;8.80;99.90;;;;;;4929326;28;20468;-77
2021/06/01 04:22:13;;;;;;;1.93;1.83;;;8.90;99.90;;;;;;4942356;28;20395;-75
2021/06/01 04:24:39;;;;;;;2.20;2.10;;;9.00;99.90;;;;;;4961830;28;20816;-74
2021/06/01 04:27:05;;;;;;;2.70;2.13;;;9.10;99.90;;;;;;4930589;28;20405;-74
2021/06/01 04:29:30;;;;;;;5.35;4.63;;;9.20;99.90;;;;;;4946380;28;21131;-74
2021/06/01 04:31:56;;;;;;;3.30;3.00;;;9.30;99.90;;;;;;4937619;28;20424;-74
2021/06/01 04:34:22;;;;;;;4.47;2.83;;;9.30;99.90;;;;;;4943680;28;20408;-75
2021/06/01 04:36:48;;;;;;;2.70;2.50;;;9.40;99.90;;;;;;4944030;28;20402;-75
2021/06/01 04:39:14;;;;;;;2.45;2.20;;;9.50;99.90;;;;;;4958473;28;20454;-74
2021/06/01 04:41:40;;;;;;;2.40;2.20;;;9.70;99.90;;;;;;4928917;28;20890;-73
2021/06/01 04:44:06;;;;;;;2.20;2.10;;;9.80;99.90;;;;;;4917852;28;20399;-75
2021/06/01 04:46:32;;;;;;;2.47;2.17;;;9.80;99.90;;;;;;4930931;28;20396;-75
2021/06/01 04:48:57;;;;;;;2.50;2.30;;;10.00;99.90;;;;;;4935394;28;20682;-74
2021/06/01 04:51:23;;;;;;;2.33;2.17;;;10.10;99.90;;;;;;4947792;28;20395;-74
2021/06/01 04:53:49;;;;;;;2.30;2.03;;;10.10;99.90;;;;;;4925407;28;20411;-73
2021/06/01 04:56:15;;;;;;;2.33;2.17;;;10.20;99.90;;;;;;4936154;28;20410;-80
2021/06/01 04:58:41;;;;;;;2.58;2.38;;;10.30;99.90;;;;;;4948748;28;20424;-74
2021/06/01 05:01:07;;;;;;;3.17;2.30;;;10.30;99.90;;;;;;4945387;28;22379;-73
2021/06/01 05:03:32;;;;;;;3.83;2.30;;;10.40;99.90;;;;;;4950097;28;20952;-76
2021/06/01 05:05:58;;;;;;;3.67;2.30;;;10.50;99.90;;;;;;4930563;28;20545;-75
2021/06/01 05:08:24;;;;;;;2.25;2.08;;;10.60;99.90;;;;;;4930696;28;20430;-74
2021/06/01 05:10:50;;;;;;;2.00;1.90;;;10.70;99.90;;;;;;4931494;28;20491;-74
2021/06/01 05:13:16;;;;;;;2.30;1.97;;;10.90;99.90;;;;;;4961342;28;20505;-73
2021/06/01 05:15:41;;;;;;;2.20;2.00;;;11.00;99.90;;;;;;4933557;28;20486;-73
2021/06/01 05:18:07;;;;;;;2.20;2.07;;;11.10;99.90;;;;;;4919833;28;20419;-73
2021/06/01 05:20:33;;;;;;;1.97;1.77;;;11.30;99.90;;;;;;4949131;28;20504;-74
2021/06/01 05:22:58;;;;;;;2.20;1.90;;;11.50;99.90;;;;;;4958871;28;20405;-74
2021/06/01 05:25:24;;;;;;;2.13;1.93;;;11.60;99.90;;;;;;4966145;28;20496;-76
2021/06/01 05:27:50;;;;;;;2.20;2.00;;;11.80;99.90;;;;;;4940652;28;20409;-74
2021/06/01 05:30:23;;;;;;;1.83;1.73;;;12.00;99.90;;;;;;4937834;28;20418;-76
2021/06/01 05:35:27;;;;;;;2.23;1.90;;;12.40;99.90;;;;;;4963858;28;20405;-77
2021/06/01 05:37:52;;;;;;;2.40;2.20;;;12.70;99.90;;;;;;4948329;28;21011;-76
2021/06/01 05:40:18;;;;;;;2.15;1.90;;;13.00;99.90;;;;;;4965639;28;20400;-74
2021/06/01 05:42:44;;;;;;;3.20;2.30;;;13.10;99.90;;;;;;4931194;28;20915;-75
2021/06/01 05:45:10;;;;;;;2.13;2.03;;;13.30;99.90;;;;;;4932671;28;20500;-76
2021/06/01 05:47:36;;;;;;;2.60;1.83;;;13.50;99.90;;;;;;4932571;28;20477;-74
2021/06/01 05:50:02;;;;;;;2.17;1.87;;;13.80;99.90;;;;;;4935138;28;20404;-75
2021/06/01 05:52:28;;;;;;;1.95;1.70;;;14.10;99.90;;;;;;4939864;28;20452;-75
2021/06/01 05:54:54;;;;;;;2.33;2.00;;;14.10;99.90;;;;;;4944274;28;20415;-75
2021/06/01 05:57:19;;;;;;;1.60;1.50;;;14.20;99.90;;;;;;4927244;28;20403;-75
2021/06/01 05:59:46;;;;;;;3.17;1.90;;;14.40;99.90;;;;;;4964228;28;20420;-75
2021/06/01 06:02:11;;;;;;;2.10;1.90;;;14.70;99.90;;;;;;4928494;28;20403;-75
2021/06/01 06:04:37;;;;;;;1.88;1.77;;;15.00;99.90;;;;;;4965159;28;20397;-75
2021/06/01 06:07:03;;;;;;;1.77;1.67;;;15.30;99.90;;;;;;4913632;28;20455;-75
2021/06/01 06:09:29;;;;;;;1.90;1.80;;;15.50;99.90;;;;;;4929507;28;20402;-75
2021/06/01 06:11:55;;;;;;;2.17;1.90;;;15.70;99.90;;;;;;4947467;28;20414;-76
2021/06/01 06:14:20;;;;;;;2.20;1.97;;;15.90;99.90;;;;;;4933117;28;20433;-75
2021/06/01 06:16:49;;;;;;;1.80;1.70;;;16.10;99.90;;;;;;4958639;28;20928;-76
2021/06/01 06:19:15;;;;;;;1.65;1.55;;;16.40;99.90;;;;;;4913192;28;20438;-75
2021/06/01 06:21:41;;;;;;;1.90;1.80;;;16.60;99.90;;;;;;4945222;28;20455;-75
2021/06/01 06:24:07;;;;;;;2.55;2.35;;;16.70;99.90;;;;;;4957321;28;20439;-75
2021/06/01 06:26:33;;;;;;;1.65;1.55;;;16.90;99.90;;;;;;4914702;28;20396;-75
2021/06/01 06:28:58;;;;;;;2.17;1.90;;;17.10;99.90;;;;;;4961667;28;20402;-76
2021/06/01 06:31:24;;;;;;;2.00;1.90;;;17.50;99.90;;;;;;4975718;28;20435;-76
2021/06/01 06:33:50;;;;;;;2.00;1.90;;;17.60;99.90;;;;;;4957312;28;20423;-76
2021/06/01 06:36:15;;;;;;;2.85;2.13;;;17.60;99.90;;;;;;4944490;28;21027;-76
2021/06/01 06:38:43;;;;;;;1.90;1.80;;;17.80;99.90;;;;;;4955624;28;20403;-75
2021/06/01 06:43:39;;;;;;;1.83;1.73;;;18.30;99.90;;;;;;4963328;28;20406;-76
2021/06/01 06:46:14;;;;;;;1.92;1.83;;;18.50;99.90;;;;;;4935077;28;20481;-76
2021/06/01 06:48:40;;;;;;;2.28;2.08;;;18.80;99.90;;;;;;4948283;28;20732;-76
2021/06/01 06:51:15;;;;;;;1.73;1.63;;;19.00;99.90;;;;;;4944412;28;20462;-75
2021/06/01 06:53:57;;;;;;;2.70;1.80;;;19.20;99.90;;;;;;4925169;28;20421;-76
2021/06/01 06:56:27;;;;;;;1.90;1.80;;;19.40;99.90;;;;;;4931385;28;20421;-76
2021/06/01 06:58:53;;;;;;;1.80;1.70;;;19.50;99.90;;;;;;4915275;29;20489;-76
2021/06/01 07:01:19;;;;;;;1.90;1.55;;;19.50;99.90;;;;;;4935753;28;20405;-76
2021/06/01 07:03:45;;;;;;;1.67;1.57;;;19.70;99.90;;;;;;4965654;28;20406;-76
2021/06/01 07:06:10;;;;;;;1.60;1.50;;;20.00;99.90;;;;;;4920959;28;20460;-76
2021/06/01 07:08:36;;;;;;;2.20;1.80;;;20.20;99.90;;;;;;4947696;28;20472;-76
2021/06/01 07:11:02;;;;;;;2.28;1.70;;;20.30;99.90;;;;;;4923839;28;20400;-76
2021/06/01 07:13:40;;;;;;;1.90;1.53;;;20.50;99.90;;;;;;4928680;28;20423;-76
2021/06/01 07:16:05;;;;;;;1.50;1.40;;;20.40;99.90;;;;;;4929185;28;20400;-77
2021/06/01 07:18:34;;;;;;;1.80;1.70;;;20.60;99.90;;;;;;4947344;28;20413;-76
2021/06/01 07:21:01;;;;;;;1.63;1.52;;;20.70;99.90;;;;;;4946929;28;20416;-76
2021/06/01 07:23:27;;;;;;;3.20;1.67;;;21.00;99.90;;;;;;4973533;28;20441;-77
2021/06/01 07:25:53;;;;;;;1.80;1.60;;;21.20;99.90;;;;;;4947438;28;20762;-76
2021/06/01 07:28:19;;;;;;;1.80;1.70;;;21.50;99.90;;;;;;4928695;28;20920;-76
2021/06/01 07:30:44;;;;;;;1.60;1.50;;;21.60;99.90;;;;;;4914028;28;20912;-76
2021/06/01 07:33:10;;;;;;;1.20;1.20;;;21.90;99.90;;;;;;4939111;28;20777;-77
2021/06/01 07:35:36;;;;;;;1.77;1.67;;;22.20;99.90;;;;;;4958948;28;20399;-77
2021/06/01 07:38:02;;;;;;;1.38;1.30;;;22.40;99.90;;;;;;4944451;28;20492;-76
2021/06/01 07:40:27;;;;;;;1.40;1.30;;;22.50;99.90;;;;;;4944312;28;20463;-76
2021/06/01 07:42:53;;;;;;;1.50;1.40;;;22.70;99.90;;;;;;4934142;28;20418;-76
2021/06/01 07:45:19;;;;;;;2.05;1.63;;;23.00;99.90;;;;;;4937785;28;20437;-77
2021/06/01 07:47:45;;;;;;;2.40;1.70;;;23.20;99.20;;;;;;4928794;28;20395;-76
2021/06/01 07:50:11;;;;;;;1.60;1.50;;;23.40;99.90;;;;;;4935148;28;21164;-76
2021/06/01 07:52:37;;;;;;;1.50;1.40;;;23.50;97.80;;;;;;4957946;28;20407;-76
2021/06/01 07:55:05;;;;;;;1.67;1.40;;;23.70;98.70;;;;;;4956249;28;20405;-77
2021/06/01 07:57:30;;;;;;;1.60;1.40;;;23.80;97.50;;;;;;4923554;29;20573;-76
2021/06/01 07:59:56;;;;;;;1.40;1.30;;;23.90;99.60;;;;;;4919719;28;20416;-77
2021/06/01 08:02:24;;;;;;;1.50;1.40;;;23.90;96.30;;;;;;4941085;28;20425;-76
2021/06/01 08:04:53;;;;;;;2.17;1.67;;;23.90;97.10;;;;;;4925514;28;20840;-77
2021/06/01 08:07:20;;;;;;;1.58;1.48;;;23.90;94.10;;;;;;4932019;28;20397;-76
2021/06/01 08:09:45;;;;;;;1.40;1.30;;;23.90;95.00;;;;;;4925612;28;20420;-76
2021/06/01 08:12:11;;;;;;;1.70;1.50;;;24.00;95.10;;;;;;4954418;28;20422;-77
2021/06/01 08:14:37;;;;;;;3.40;1.70;;;24.10;96.10;;;;;;4963715;28;20389;-76
2021/06/01 08:17:03;;;;;;;1.60;1.50;;;24.20;93.70;;;;;;4954267;28;20402;-77
2021/06/01 08:19:44;;;;;;;1.50;1.40;;;24.10;94.60;;;;;;4941716;28;20434;-76
2021/06/01 08:24:36;;;;;;;2.53;1.70;;;24.10;92.50;;;;;;4947548;28;20409;-77
2021/06/01 08:27:02;;;;;;;2.90;1.80;;;24.20;94.50;;;;;;4936252;28;20953;-77
2021/06/01 08:29:27;;;;;;;1.75;1.65;;;24.20;92.40;;;;;;4940798;28;20416;-77
2021/06/01 08:31:53;;;;;;;1.83;1.73;;;24.10;95.20;;;;;;4944218;28;20401;-77
2021/06/01 08:34:19;;;;;;;1.70;1.60;;;24.10;95.80;;;;;;4963392;28;20494;-77
2021/06/01 08:36:44;;;;;;;1.77;1.67;;;24.40;94.70;;;;;;4949020;28;20396;-77
2021/06/01 08:39:10;;;;;;;2.03;1.70;;;24.40;93.50;;;;;;4968258;28;20553;-77
2021/06/01 08:41:36;;;;;;;1.80;1.70;;;24.30;94.70;;;;;;4933480;28;20405;-77
2021/06/01 08:44:04;;;;;;;2.60;1.58;;;24.30;94.20;;;;;;4911896;28;20432;-77
2021/06/01 08:46:30;;;;;;;1.55;1.45;;;24.20;95.10;;;;;;4923137;28;20401;-77
2021/06/01 08:48:56;;;;;;;3.88;2.15;;;24.30;94.50;;;;;;4899423;29;20474;-77
2021/06/01 08:51:22;;;;;;;2.03;1.80;;;24.50;96.10;;;;;;4915265;28;20499;-77
2021/06/01 08:53:52;;;;;;;1.80;1.70;;;24.50;95.00;;;;;;4941310;28;20417;-78
2021/06/01 08:56:18;;;;;;;1.95;1.75;;;24.40;95.20;;;;;;4919497;28;20418;-77
2021/06/01 08:58:44;;;;;;;1.60;1.50;;;24.30;96.20;;;;;;4930035;28;20415;-77
2021/06/01 09:01:10;;;;;;;2.97;2.33;;;24.30;95.70;;;;;;4931388;28;21106;-78
2021/06/01 09:03:36;;;;;;;1.88;1.77;;;24.40;96.10;;;;;;4914469;29;21313;-76
2021/06/01 09:22:49;;;;;;;2.03;1.70;;;25.40;93.90;;;;;;4924528;28;20820;-78
2021/06/01 09:27:52;;;;;;;2.13;2.03;;;25.60;92.40;;;;;;4948076;28;20430;-77
2021/06/01 09:30:35;;;;;;;3.40;1.77;;;25.50;92.10;;;;;;4899501;28;20913;-77
2021/06/01 09:33:01;;;;;;;1.95;1.85;;;25.60;91.70;;;;;;4933861;28;20502;-78
2021/06/01 09:36:00;;;;;;;2.80;2.23;;;25.80;90.90;;;;;;4949717;28;20416;-77
2021/06/01 09:38:35;;;;;;;1.90;1.80;;;26.00;91.90;;;;;;4924058;28;20398;-77
2021/06/01 09:41:05;;;;;;;1.85;1.75;;;26.10;91.50;;;;;;4946584;28;20403;-77
2021/06/01 09:43:31;;;;;;;2.05;1.83;;;26.40;91.10;;;;;;4925088;28;22016;-77
2021/06/01 09:45:57;;;;;;;2.15;2.00;;;26.50;90.20;;;;;;4941446;28;20401;-77
2021/06/01 09:48:24;;;;;;;2.67;2.00;;;26.30;89.20;;;;;;4930576;28;20463;-77
2021/06/01 09:50:55;;;;;;;1.90;1.80;;;26.20;90.50;;;;;;4963218;28;20405;-77
2021/06/01 09:53:31;;;;;;;2.15;1.95;;;26.20;90.50;;;;;;4949160;28;20422;-77
2021/06/01 09:55:57;;;;;;;2.60;2.30;;;26.40;91.60;;;;;;4949931;28;20413;-77
2021/06/01 09:58:25;;;;;;;1.83;1.73;;;26.30;91.00;;;;;;4964446;28;20434;-77
2021/06/01 10:00:50;;;;;;;2.53;1.80;;;26.40;90.60;;;;;;4932805;28;20484;-77
2021/06/01 10:03:18;;;;;;;4.03;2.10;;;26.50;90.80;;;;;;4939887;28;20810;-78
2021/06/01 10:05:44;;;;;;;2.05;1.85;;;26.30;89.60;;;;;;4958266;28;20406;-77
2021/06/01 10:08:21;;;;;;;2.67;2.40;;;26.10;90.90;;;;;;4926907;28;20438;-78
2021/06/01 10:10:56;;;;;;;2.42;2.22;;;26.00;91.10;;;;;;4949666;28;20405;-78
2021/06/01 10:13:23;;;;;;;2.40;2.20;;;26.20;91.60;;;;;;4946812;28;20402;-79
2021/06/01 10:15:53;;;;;;;3.38;2.50;;;26.40;90.20;;;;;;4946557;28;20401;-78
2021/06/01 10:18:19;;;;;;;2.28;2.08;;;26.60;89.20;;;;;;4945976;28;20772;-77
2021/06/01 10:20:49;;;;;;;2.40;2.20;;;26.80;90.80;;;;;;4960760;28;20408;-78
2021/06/01 10:23:18;;;;;;;2.10;1.88;;;26.80;90.40;;;;;;4933246;28;20394;-77
2021/06/01 10:25:43;;;;;;;2.30;2.10;;;26.70;90.20;;;;;;4933300;28;20997;-77
2021/06/01 10:28:10;;;;;;;2.35;2.15;;;26.90;91.40;;;;;;4948636;28;20402;-77
2021/06/01 10:30:38;;;;;;;2.20;2.10;;;27.10;89.90;;;;;;4931977;28;20394;-77
2021/06/01 10:33:05;;;;;;;1.97;1.87;;;27.30;90.00;;;;;;4948650;28;20911;-77
2021/06/01 10:35:34;;;;;;;2.30;2.20;;;27.20;90.40;;;;;;4947006;28;20406;-77
2021/06/01 10:44:15;;;;;;;2.53;2.33;;;27.20;86.50;;;;;;4921878;28;20414;-78
2021/06/01 10:52:20;;;;;;;3.10;2.70;;;27.50;84.10;;;;;;4943550;28;20789;-78
2021/06/01 10:54:49;;;;;;;2.28;1.90;;;27.60;83.00;;;;;;4965198;28;20406;-78
2021/06/01 10:57:19;;;;;;;2.03;1.85;;;27.80;83.30;;;;;;4950467;28;20898;-78
2021/06/01 10:59:57;;;;;;;3.25;2.30;;;28.30;86.60;;;;;;4952587;28;20407;-79
2021/06/01 11:02:24;;;;;;;3.38;2.45;;;28.50;83.40;;;;;;4950223;28;20397;-79
2021/06/01 11:05:11;;;;;;;2.30;2.10;;;28.70;82.10;;;;;;4934295;28;20408;-78
2021/06/01 11:07:52;;;;;;;2.08;1.90;;;28.80;77.70;;;;;;4920118;28;20477;-77
2021/06/01 11:10:40;;;;;;;3.17;2.17;;;28.80;76.20;;;;;;4948630;28;20388;-78
2021/06/01 11:13:07;;;;;;;2.60;2.00;;;29.10;79.70;;;;;;4956724;28;20422;-78
2021/06/01 11:15:34;;;;;;;6.13;2.00;;;29.10;75.50;;;;;;4950248;28;20469;-79
2021/06/01 11:18:32;;;;;;;2.00;1.88;;;29.00;80.60;;;;;;4948618;28;20434;-78
2021/06/01 11:21:20;;;;;;;1.83;1.73;;;29.30;75.70;;;;;;4955112;28;20419;-78
2021/06/01 11:35:23;;;;;;;2.85;2.33;;;29.70;74.50;;;;;;4936917;28;20439;-78
2021/06/01 11:38:34;;;;;;;4.10;1.98;;;29.60;75.70;;;;;;4949029;28;20402;-78
2021/06/01 11:43:15;;;;;;;2.28;1.90;;;29.80;72.30;;;;;;4926071;28;20395;-78
2021/06/01 11:45:42;;;;;;;2.20;2.05;;;30.00;72.20;;;;;;4943378;28;20405;-77
2021/06/01 11:48:28;;;;;;;2.20;2.10;;;30.30;71.40;;;;;;4947071;28;20406;-78
2021/06/01 11:51:16;;;;;;;2.28;2.08;;;30.50;71.40;;;;;;4931674;28;20422;-78
2021/06/01 11:53:52;;;;;;;1.92;1.83;;;30.90;70.50;;;;;;4947190;28;20423;-79
2021/06/01 11:56:36;;;;;;;1.85;1.75;;;31.50;68.70;;;;;;4950063;28;20459;-78
2021/06/01 12:18:43;;;;;;;2.25;2.05;;;33.00;58.60;;;;;;4935728;28;20401;-78
2021/06/01 12:21:19;;;;;;;2.63;2.30;;;33.20;59.80;;;;;;4937383;28;20396;-79
2021/06/01 12:23:53;;;;;;;1.73;1.63;;;33.60;56.30;;;;;;4943712;28;20494;-78
2021/06/01 12:31:46;;;;;;;1.93;1.83;;;31.80;57.50;;;;;;4959788;28;20405;-79
2021/06/01 12:34:16;;;;;;;1.63;1.52;;;31.50;57.80;;;;;;4939581;28;20449;-78
2021/06/01 12:44:58;;;;;;;1.92;1.80;;;31.80;54.40;;;;;;4943013;28;20407;-79
2021/06/01 13:05:28;;;;;;;1.80;1.70;;;30.10;54.20;;;;;;4933260;28;20406;-79
2021/06/01 13:12:17;;;;;;;1.93;1.83;;;31.10;51.90;;;;;;4922776;28;20900;-80
2021/06/01 13:20:58;;;;;;;1.73;1.63;;;30.90;50.80;;;;;;4953709;28;20405;-79
2021/06/01 13:39:51;;;;;;;1.63;1.52;;;29.50;51.80;;;;;;4947316;28;20889;-77
2021/06/01 13:55:40;;;;;;;2.40;2.00;;;29.70;51.20;;;;;;4916966;28;20413;-79
2021/06/01 14:31:12;;;;;;;1.75;1.65;;;29.00;52.90;;;;;;4930051;28;20458;-79
2021/06/01 14:39:17;;;;;;;1.70;1.60;;;28.70;51.40;;;;;;4916444;28;20403;-78
2021/06/01 15:04:08;;;;;;;1.50;1.40;;;28.60;52.10;;;;;;4949222;28;20407;-78
2021/06/01 15:23:10;;;;;;;1.60;1.50;;;27.90;53.10;;;;;;4934927;28;20545;-77
2021/06/01 15:31:32;;;;;;;1.50;1.40;;;27.30;53.20;;;;;;4935820;28;20407;-76
2021/06/01 15:41:28;;;;;;;1.53;1.43;;;27.10;54.10;;;;;;4954311;28;20414;-77
2021/06/01 15:50:37;;;;;;;1.67;1.58;;;27.00;53.80;;;;;;4918570;28;20424;-77
2021/06/01 15:53:36;;;;;;;2.03;1.50;;;27.00;53.40;;;;;;4921030;28;20418;-75
2021/06/01 16:21:28;;;;;;;1.85;1.75;;;26.30;56.90;;;;;;4964717;28;20414;-76
2021/06/01 16:32:14;;;;;;;1.70;1.60;;;26.10;57.40;;;;;;4929915;28;20444;-76
2021/06/01 17:04:49;;;;;;;1.70;1.60;;;25.00;64.10;;;;;;4942049;28;20899;-75
2021/06/01 17:12:32;;;;;;;1.85;1.60;;;24.80;65.50;;;;;;4952109;28;20444;-75
2021/06/01 17:14:58;;;;;;;1.80;1.70;;;24.80;65.80;;;;;;4956257;28;20473;-75
2021/06/01 17:17:27;;;;;;;1.73;1.63;;;24.90;65.60;;;;;;4959092;28;20785;-75
2021/06/01 17:20:08;;;;;;;1.40;1.30;;;24.80;65.70;;;;;;4960524;28;20394;-75
2021/06/01 17:35:57;;;;;;;1.60;1.50;;;24.40;66.80;;;;;;4951394;28;20821;-75
2021/06/01 17:38:24;;;;;;;1.70;1.60;;;24.30;67.10;;;;;;4921107;28;20409;-75
2021/06/01 17:40:54;;;;;;;1.55;1.45;;;24.10;66.60;;;;;;4916210;29;20414;-75
2021/06/01 17:43:22;;;;;;;5.60;1.70;;;24.10;67.00;;;;;;4928426;28;20410;-76
2021/06/01 17:45:48;;;;;;;1.80;1.70;;;23.80;66.60;;;;;;4944467;28;20414;-76
2021/06/01 17:48:31;;;;;;;1.90;1.80;;;23.50;67.90;;;;;;4928167;28;20772;-77
2021/06/01 17:50:58;;;;;;;5.88;2.00;;;23.20;69.10;;;;;;4943328;28;20470;-76
2021/06/01 17:53:23;;;;;;;1.77;1.67;;;22.90;70.00;;;;;;4936315;28;20429;-75
2021/06/01 17:55:52;;;;;;;1.70;1.60;;;22.70;70.60;;;;;;4927618;28;20430;-76
2021/06/01 17:58:21;;;;;;;1.80;1.70;;;22.50;71.40;;;;;;4929311;28;20415;-76
2021/06/01 18:00:47;;;;;;;1.92;1.83;;;22.30;72.00;;;;;;4914401;28;20476;-76
2021/06/01 18:03:12;;;;;;;2.10;1.90;;;22.20;72.90;;;;;;4943960;28;20490;-75
2021/06/01 18:05:42;;;;;;;2.03;1.90;;;22.10;73.70;;;;;;4930715;28;20405;-76
2021/06/01 18:08:37;;;;;;;1.70;1.58;;;22.00;75.00;;;;;;4948271;28;20414;-76
2021/06/01 18:40:55;;;;;;;1.77;1.67;;;21.10;80.10;;;;;;4921920;28;20410;-77
2021/06/01 18:41:32;;;;;;;1.55;1.45;;;21.10;80.10;;;;;;4921981;28;20477;-77
2021/06/01 18:52:58;;;;;;;1.85;1.58;;;21.10;82.10;;;;;;4926203;28;20447;-77
2021/06/01 19:25:10;;;;;;;2.60;2.40;;;19.80;95.00;;;;;;4906922;28;20494;-76
2021/06/01 19:50:00;;;;;;;3.17;2.58;;;19.30;99.90;;;;;;4937411;28;20815;-79
2021/06/01 19:52:30;;;;;;;2.72;2.42;;;19.20;99.90;;;;;;4915921;28;20942;-78
2021/06/01 19:55:01;;;;;;;2.80;2.60;;;19.10;99.90;;;;;;4915290;28;20428;-79
2021/06/01 19:57:27;;;;;;;2.20;2.03;;;19.10;99.90;;;;;;4943027;28;20439;-78
2021/06/01 19:59:54;;;;;;;2.67;2.47;;;19.00;99.90;;;;;;4941639;28;20402;-78
2021/06/01 20:02:25;;;;;;;2.65;2.45;;;19.00;99.90;;;;;;4942447;28;20414;-79